Time;durP1;ratioP1;P1;durP2;ratioP2;P2;SDS_P1;SDS_P2;PMS_P1;PMS_P2;Temp;Humidity;BMP_temperature;BMP_pressure;BME280_temperature;BME280_humidity;BME280_pressure;Samples;Min_cycle;Max_cycle;Signal;HPM_P1;HPM_P2
2022/01/07 00:01:24;;;;;;;5.65;3.60;;;;;;;6.69;69.97;97533.03;4905555;29;20043;-86
2022/01/07 00:03:51;;;;;;;5.72;3.50;;;;;;;6.81;70.56;97548.41;4898267;29;20047;-85
2022/01/07 00:06:17;;;;;;;6.60;3.42;;;;;;;6.87;71.15;97563.19;4936341;29;20048;-85
2022/01/07 00:08:43;;;;;;;4.75;3.30;;;;;;;6.86;70.24;97556.19;4913948;29;20032;-85
2022/01/07 00:11:10;;;;;;;10.65;3.10;;;;;;;6.59;70.40;97522.88;4909958;29;20571;-87
2022/01/07 00:13:36;;;;;;;9.20;3.50;;;;;;;6.66;69.89;97542.94;4924201;29;20047;-84
2022/01/07 00:16:01;;;;;;;4.90;2.78;;;;;;;6.80;70.70;97567.09;4892121;29;20047;-85
2022/01/07 00:18:27;;;;;;;6.18;3.38;;;;;;;6.66;70.54;97553.56;4918623;29;20573;-84
2022/01/07 00:20:54;;;;;;;7.50;3.60;;;;;;;6.58;69.59;97538.00;4924606;29;20064;-85
2022/01/07 00:23:20;;;;;;;4.70;2.50;;;;;;;6.76;68.95;97561.06;4907091;29;20127;-85
2022/01/07 00:25:46;;;;;;;5.57;2.72;;;;;;;6.71;68.95;97570.16;4905943;29;20035;-86
2022/01/07 00:28:12;;;;;;;2.92;2.42;;;;;;;6.73;68.36;97573.63;4900723;29;20032;-85
2022/01/07 00:30:38;;;;;;;3.38;2.40;;;;;;;6.72;68.50;97556.81;4895216;29;20518;-85
2022/01/07 00:33:05;;;;;;;2.78;2.10;;;;;;;6.92;67.52;97561.22;4895125;29;20142;-85
2022/01/07 00:35:30;;;;;;;5.68;2.63;;;;;;;6.79;68.56;97565.38;4885686;29;20135;-85
2022/01/07 00:37:56;;;;;;;3.60;2.30;;;;;;;6.80;68.08;97578.56;4901299;29;20465;-85
2022/01/07 00:40:23;;;;;;;4.47;3.05;;;;;;;6.72;68.55;97583.38;4889258;29;20040;-86
2022/01/07 00:42:50;;;;;;;3.80;3.00;;;;;;;6.65;69.01;97586.38;4888948;29;20043;-85
2022/01/07 00:45:20;;;;;;;3.88;2.80;;;;;;;6.69;69.50;97602.13;4889040;29;20039;-85
2022/01/07 00:47:50;;;;;;;6.78;3.47;;;;;;;6.46;70.39;97579.25;4904257;29;20036;-85
2022/01/07 00:50:18;;;;;;;7.05;4.45;;;;;;;6.46;71.90;97583.72;4909219;29;20109;-85
2022/01/07 00:52:48;;;;;;;7.57;4.13;;;;;;;6.59;72.85;97592.84;4924032;29;20439;-84
2022/01/07 00:55:14;;;;;;;6.25;4.07;;;;;;;6.65;73.17;97600.53;4926867;29;20088;-85
2022/01/07 00:57:40;;;;;;;6.45;4.32;;;;;;;6.61;73.07;97593.66;4920039;29;20485;-86
2022/01/07 01:00:10;;;;;;;9.48;4.05;;;;;;;6.40;72.72;97565.38;4900823;29;20059;-85
2022/01/07 01:02:36;;;;;;;5.53;3.97;;;;;;;6.36;72.64;97577.09;4912440;29;20099;-85
2022/01/07 01:05:04;;;;;;;6.70;3.95;;;;;;;6.42;72.47;97587.44;4927500;29;20043;-85
2022/01/07 01:07:30;;;;;;;11.05;3.42;;;;;;;6.48;71.88;97589.81;4921151;29;20032;-86
2022/01/07 01:09:56;;;;;;;13.00;3.85;;;;;;;6.28;71.84;97563.28;4910379;29;20107;-85
2022/01/07 01:12:22;;;;;;;5.53;3.40;;;;;;;6.42;72.30;97596.28;4927508;29;20031;-86
2022/01/07 01:14:47;;;;;;;11.98;3.20;;;;;;;6.51;73.25;97603.84;4911181;29;20036;-84
2022/01/07 01:17:14;;;;;;;4.80;3.05;;;;;;;6.54;72.39;97600.19;4916647;29;20040;-85
2022/01/07 01:19:40;;;;;;;5.10;2.63;;;;;;;6.51;70.40;97595.88;4892573;29;20047;-86
2022/01/07 01:22:08;;;;;;;4.20;2.70;;;;;;;6.47;68.65;97596.06;4910341;29;20183;-85
2022/01/07 01:24:34;;;;;;;3.35;2.38;;;;;;;6.37;67.38;97574.34;4902319;29;20134;-84
2022/01/07 01:27:00;;;;;;;2.78;1.90;;;;;;;6.43;67.11;97595.34;4890830;29;20032;-85
2022/01/07 01:29:26;;;;;;;4.75;1.83;;;;;;;6.35;66.14;97575.38;4915481;29;20031;-85
2022/01/07 01:31:51;;;;;;;5.32;1.92;;;;;;;6.29;65.98;97579.16;4907656;29;20518;-86
2022/01/07 01:34:17;;;;;;;1.60;1.42;;;;;;;6.30;66.57;97588.00;4905336;29;20032;-85
2022/01/07 01:36:43;;;;;;;3.28;1.80;;;;;;;6.30;66.73;97601.28;4897264;29;20035;-86
2022/01/07 01:39:12;;;;;;;2.00;1.50;;;;;;;6.31;66.82;97597.66;4906595;29;20050;-85
2022/01/07 01:41:37;;;;;;;1.60;1.40;;;;;;;6.33;66.55;97598.47;4910074;29;20036;-85
2022/01/07 01:44:03;;;;;;;2.67;1.92;;;;;;;6.25;66.97;97590.84;4911106;29;20048;-84
2022/01/07 01:46:28;;;;;;;4.32;1.60;;;;;;;6.19;66.47;97579.63;4914231;29;20032;-86
2022/01/07 01:48:54;;;;;;;3.65;1.90;;;;;;;6.13;66.54;97586.06;4897819;29;20050;-85
2022/01/07 01:51:20;;;;;;;3.08;1.83;;;;;;;6.14;67.61;97589.59;4904350;29;20463;-85
2022/01/07 01:53:46;;;;;;;1.77;1.50;;;;;;;6.17;67.30;97586.81;4920450;29;20118;-85
2022/01/07 01:56:11;;;;;;;2.67;1.85;;;;;;;6.22;67.38;97606.91;4911598;29;20044;-85
2022/01/07 01:58:37;;;;;;;2.17;1.67;;;;;;;6.18;67.69;97599.16;4896132;29;20036;-84
2022/01/07 02:01:03;;;;;;;3.58;2.28;;;;;;;6.12;67.35;97594.13;4919978;29;20039;-85
2022/01/07 02:03:28;;;;;;;2.90;1.88;;;;;;;6.13;67.78;97585.19;4902704;29;20131;-85
2022/01/07 02:05:55;;;;;;;4.20;2.08;;;;;;;6.14;67.56;97581.63;4889932;29;20123;-85
2022/01/07 02:08:21;;;;;;;3.30;1.80;;;;;;;6.24;67.52;97594.44;4922703;29;20062;-84
2022/01/07 02:10:47;;;;;;;4.32;2.65;;;;;;;6.12;67.33;97594.13;4893953;29;20040;-85
2022/01/07 02:13:15;;;;;;;5.65;3.30;;;;;;;6.16;67.81;97601.88;4896620;29;20102;-85
2022/01/07 02:15:41;;;;;;;3.65;2.60;;;;;;;6.07;68.39;97596.09;4898241;29;20059;-85
2022/01/07 02:18:08;;;;;;;7.40;3.10;;;;;;;6.08;68.67;97605.78;4897078;29;20040;-86
2022/01/07 02:20:33;;;;;;;3.55;2.58;;;;;;;5.97;68.91;97606.22;4886523;29;20036;-85
2022/01/07 02:23:00;;;;;;;5.60;2.53;;;;;;;5.90;69.64;97605.66;4910628;29;20054;-85
2022/01/07 02:25:26;;;;;;;6.18;2.42;;;;;;;5.83;69.50;97593.53;4913033;29;20135;-85
2022/01/07 02:27:52;;;;;;;3.85;2.40;;;;;;;5.97;69.55;97611.53;4921506;29;20460;-85
2022/01/07 02:30:22;;;;;;;2.88;2.30;;;;;;;6.00;69.56;97620.25;4904428;29;20563;-85
2022/01/07 02:32:48;;;;;;;4.15;2.38;;;;;;;5.88;70.12;97620.78;4908201;29;20060;-87
2022/01/07 02:35:14;;;;;;;2.80;2.15;;;;;;;5.88;70.27;97618.13;4916757;29;20049;-84
2022/01/07 02:37:39;;;;;;;5.55;2.53;;;;;;;5.87;70.36;97626.16;4921976;29;20126;-85
2022/01/07 02:40:06;;;;;;;3.67;2.25;;;;;;;5.78;70.84;97622.03;4914883;29;20527;-85
2022/01/07 02:42:32;;;;;;;2.75;2.15;;;;;;;5.65;70.73;97610.22;4900446;29;20047;-86
2022/01/07 02:44:58;;;;;;;4.80;2.47;;;;;;;5.61;71.52;97613.94;4911836;29;20542;-85
2022/01/07 02:47:26;;;;;;;4.57;2.22;;;;;;;5.40;71.38;97602.41;4887884;29;20051;-85
2022/01/07 02:49:52;;;;;;;7.13;2.50;;;;;;;5.41;72.01;97617.38;4909343;29;20091;-84
2022/01/07 02:52:18;;;;;;;5.05;2.97;;;;;;;5.21;72.17;97608.50;4897601;29;20047;-85
2022/01/07 02:54:43;;;;;;;6.13;3.70;;;;;;;5.15;72.96;97630.84;4895881;29;20051;-86
2022/01/07 02:57:09;;;;;;;7.55;3.22;;;;;;;5.13;72.94;97626.53;4894862;29;20531;-85
2022/01/07 02:59:34;;;;;;;4.03;2.72;;;;;;;5.05;73.43;97629.44;4910348;29;20047;-85
2022/01/07 03:02:00;;;;;;;6.40;3.17;;;;;;;4.95;74.12;97621.94;4910229;29;20047;-85
2022/01/07 03:04:27;;;;;;;5.25;2.58;;;;;;;4.91;74.47;97631.78;4897858;29;20063;-85
2022/01/07 03:06:53;;;;;;;3.78;2.65;;;;;;;4.89;75.00;97634.47;4909603;29;20051;-86
2022/01/07 03:09:19;;;;;;;4.40;2.90;;;;;;;4.84;75.50;97630.28;4915779;29;20043;-86
2022/01/07 03:11:45;;;;;;;3.70;2.40;;;;;;;4.79;75.64;97622.53;4890448;29;20081;-87
2022/01/07 03:14:10;;;;;;;4.05;2.78;;;;;;;4.87;75.71;97654.88;4898885;29;20123;-85
2022/01/07 03:16:38;;;;;;;5.35;2.85;;;;;;;4.84;75.41;97652.34;4888290;29;20040;-85
2022/01/07 03:19:04;;;;;;;4.05;2.80;;;;;;;4.76;75.41;97641.19;4920059;29;20035;-86
2022/01/07 03:21:32;;;;;;;6.15;2.80;;;;;;;4.80;75.33;97656.03;4887669;29;20489;-85
2022/01/07 03:23:58;;;;;;;8.18;3.58;;;;;;;4.75;75.54;97641.22;4917571;29;20224;-86
2022/01/07 03:26:23;;;;;;;8.68;3.40;;;;;;;4.86;75.09;97650.50;4892856;29;20542;-86
2022/01/07 03:28:49;;;;;;;5.32;3.13;;;;;;;4.97;74.99;97652.75;4898168;29;20043;-86
2022/01/07 03:31:15;;;;;;;4.30;2.63;;;;;;;4.98;75.05;97653.63;4889359;29;20044;-86
2022/01/07 03:33:41;;;;;;;6.05;3.28;;;;;;;5.13;74.53;97647.72;4911230;29;20052;-84
2022/01/07 03:36:07;;;;;;;6.78;3.47;;;;;;;5.27;73.53;97661.28;4920703;29;20516;-84
2022/01/07 03:38:32;;;;;;;3.97;2.92;;;;;;;5.21;72.83;97645.63;4908818;29;20040;-85
2022/01/07 03:40:58;;;;;;;5.93;2.95;;;;;;;5.25;73.38;97650.78;4901740;29;20052;-86
2022/01/07 03:43:24;;;;;;;7.95;3.47;;;;;;;5.24;73.19;97634.91;4932369;29;20040;-85
2022/01/07 03:45:49;;;;;;;7.35;3.90;;;;;;;5.44;72.30;97665.00;4913398;29;20043;-85
2022/01/07 03:48:15;;;;;;;9.55;4.93;;;;;;;5.29;73.17;97659.47;4913602;29;20070;-84
2022/01/07 03:50:41;;;;;;;17.50;5.22;;;;;;;5.34;73.32;97673.41;4914437;29;20031;-84
2022/01/07 03:53:06;;;;;;;11.75;5.22;;;;;;;5.29;72.98;97659.47;4901417;29;20452;-85
2022/01/07 03:55:32;;;;;;;9.85;6.53;;;;;;;5.35;73.12;97675.13;4899299;29;20036;-85
2022/01/07 03:57:58;;;;;;;11.40;5.80;;;;;;;5.39;73.32;97674.06;4889278;29;20039;-85
2022/01/07 04:00:32;;;;;;;6.38;4.15;;;;;;;5.47;72.64;97702.00;4911817;29;20155;-85
2022/01/07 04:03:01;;;;;;;19.25;7.68;;;;;;;5.44;74.58;97690.69;4893865;29;20036;-85
2022/01/07 04:05:27;;;;;;;12.80;6.65;;;;;;;5.44;73.37;97696.84;4908690;29;20084;-74
2022/01/07 04:07:52;;;;;;;7.65;3.70;;;;;;;5.40;72.44;97695.25;4904088;29;20035;-85
2022/01/07 04:10:18;;;;;;;6.20;3.47;;;;;;;5.35;72.64;97686.59;4895558;29;20039;-86
2022/01/07 04:12:44;;;;;;;5.30;2.95;;;;;;;5.42;72.13;97688.09;4910303;29;20050;-85
2022/01/07 04:15:10;;;;;;;9.02;4.65;;;;;;;5.51;72.38;97708.06;4886193;29;20043;-86
2022/01/07 04:17:37;;;;;;;5.05;3.30;;;;;;;5.50;72.03;97706.38;4910913;29;20519;-85
2022/01/07 04:20:08;;;;;;;5.18;3.60;;;;;;;5.41;72.22;97709.38;4911973;29;20044;-85
2022/01/07 04:22:34;;;;;;;5.20;3.13;;;;;;;5.39;72.03;97700.59;4909223;29;20043;-86
2022/01/07 04:25:05;;;;;;;7.93;3.40;;;;;;;5.36;72.54;97719.28;4903865;29;20535;-86
2022/01/07 04:27:31;;;;;;;6.50;3.30;;;;;;;5.31;71.85;97721.25;4896825;29;20041;-83
2022/01/07 04:29:57;;;;;;;5.63;3.33;;;;;;;5.14;72.42;97686.53;4899491;29;20055;-86
2022/01/07 04:32:23;;;;;;;10.30;4.45;;;;;;;5.31;72.34;97711.50;4920021;29;20535;-87
2022/01/07 04:34:50;;;;;;;21.30;7.15;;;;;;;5.35;72.37;97696.34;4917136;29;20036;-86
2022/01/07 04:37:17;;;;;;;17.45;6.70;;;;;;;5.32;72.07;97683.22;4899459;29;20056;-87
2022/01/07 04:39:46;;;;;;;17.13;7.10;;;;;;;5.35;71.72;97678.63;4890973;29;20560;-87
2022/01/07 04:42:11;;;;;;;14.10;6.57;;;;;;;5.47;71.57;97701.19;4908329;29;20071;-82
2022/01/07 04:44:40;;;;;;;13.70;6.28;;;;;;;5.56;72.01;97713.22;4888630;29;20036;-88
2022/01/07 04:47:10;;;;;;;22.08;11.10;;;;;;;5.53;72.59;97727.47;4916394;29;20047;-85
2022/01/07 04:49:36;;;;;;;28.55;13.57;;;;;;;5.36;73.61;97721.94;4905319;29;20040;-87
2022/01/07 04:52:06;;;;;;;31.27;13.30;;;;;;;5.46;74.04;97725.97;4885503;29;20042;-86
2022/01/07 04:54:33;;;;;;;29.73;15.55;;;;;;;5.55;73.99;97736.22;4901755;29;20496;-86
2022/01/07 04:56:59;;;;;;;28.25;15.27;;;;;;;5.53;74.06;97726.59;4892990;29;20039;-86
2022/01/07 04:59:25;;;;;;;37.58;16.85;;;;;;;5.65;73.77;97721.69;4901452;29;20036;-86
2022/01/07 05:01:51;;;;;;;25.13;12.38;;;;;;;5.65;73.61;97737.59;4893116;29;20425;-86
2022/01/07 05:04:16;;;;;;;32.10;12.05;;;;;;;5.65;73.48;97740.25;4906634;29;20044;-86
2022/01/07 05:09:07;;;;;;;27.48;12.35;;;;;;;5.58;73.39;97722.84;4915815;29;20032;-87
2022/01/07 05:11:33;;;;;;;29.30;12.23;;;;;;;5.66;73.54;97728.69;4893636;29;20040;-87
2022/01/07 05:13:58;;;;;;;22.90;11.60;;;;;;;5.72;73.22;97712.53;4892472;29;20134;-86
2022/01/07 05:16:26;;;;;;;21.45;11.15;;;;;;;5.75;73.25;97730.97;4907378;29;20501;-86
2022/01/07 05:18:52;;;;;;;21.15;10.07;;;;;;;5.70;74.39;97727.66;4906315;29;20047;-86
2022/01/07 05:21:18;;;;;;;19.80;10.15;;;;;;;5.52;75.84;97730.16;4884871;29;20036;-86
2022/01/07 05:23:43;;;;;;;20.73;9.55;;;;;;;5.42;76.70;97733.16;4899771;29;20093;-85
2022/01/07 05:26:09;;;;;;;16.65;8.93;;;;;;;5.27;78.26;97732.88;4888104;29;20474;-86
2022/01/07 05:28:34;;;;;;;22.95;10.82;;;;;;;5.29;78.49;97729.25;4907225;29;20481;-82
2022/01/07 05:31:00;;;;;;;29.77;14.30;;;;;;;5.38;78.99;97736.03;4912807;29;20479;-85
2022/01/07 05:33:26;;;;;;;24.45;11.13;;;;;;;5.26;79.99;97739.97;4904677;29;20522;-88
2022/01/07 05:35:51;;;;;;;17.42;9.07;;;;;;;5.19;80.44;97751.75;4891152;29;20043;-86
2022/01/07 05:38:17;;;;;;;22.60;10.90;;;;;;;5.23;80.53;97755.16;4912597;29;20043;-74
2022/01/07 05:40:43;;;;;;;20.67;10.23;;;;;;;5.08;81.15;97747.75;4911690;29;20126;-87
2022/01/07 05:43:08;;;;;;;22.65;11.45;;;;;;;5.26;81.35;97755.03;4893794;29;20051;-85
2022/01/07 05:45:34;;;;;;;29.05;9.70;;;;;;;5.27;80.37;97754.09;4922841;29;20043;-89
2022/01/07 05:48:00;;;;;;;13.77;7.10;;;;;;;5.07;80.73;97746.03;4901454;29;20039;-90
2022/01/07 05:50:26;;;;;;;18.67;8.43;;;;;;;4.97;82.13;97740.22;4908679;29;20039;-89
2022/01/07 05:52:52;;;;;;;20.27;9.57;;;;;;;4.93;82.62;97750.06;4908249;29;20043;-86
2022/01/07 05:55:18;;;;;;;20.38;9.88;;;;;;;4.96;83.51;97762.31;4889096;29;20485;-88
2022/01/07 05:57:43;;;;;;;26.95;11.38;;;;;;;4.82;84.81;97746.06;4904015;29;20111;-88
2022/01/07 06:00:10;;;;;;;22.08;10.75;;;;;;;5.01;85.09;97768.34;4904260;29;20044;-87
2022/01/07 06:02:36;;;;;;;17.08;8.35;;;;;;;4.99;84.03;97754.25;4904498;29;20501;-89
2022/01/07 06:05:02;;;;;;;22.30;9.15;;;;;;;5.08;84.11;97766.31;4905145;29;20139;-88
2022/01/07 06:07:28;;;;;;;19.05;9.00;;;;;;;5.15;83.86;97775.78;4910087;29;20043;-87
2022/01/07 06:09:54;;;;;;;24.23;10.75;;;;;;;5.08;83.15;97763.66;4907020;29;20040;-88
2022/01/07 06:12:19;;;;;;;24.98;12.15;;;;;;;5.12;83.44;97773.25;4905900;29;20047;-89
2022/01/07 06:14:45;;;;;;;23.70;12.48;;;;;;;5.10;82.92;97764.47;4893677;29;20119;-91
2022/01/07 06:17:12;;;;;;;25.90;12.90;;;;;;;5.06;82.76;97763.72;4892180;29;20099;-88
2022/01/07 06:19:38;;;;;;;26.08;12.23;;;;;;;5.06;82.53;97757.56;4891472;29;20046;-88
2022/01/07 06:22:04;;;;;;;30.13;11.88;;;;;;;5.12;82.10;97763.50;4889428;29;20043;-90
2022/01/07 06:24:30;;;;;;;25.92;12.23;;;;;;;5.03;81.61;97744.41;4890009;29;20046;-86
2022/01/07 06:26:55;;;;;;;28.85;11.93;;;;;;;5.14;81.03;97740.44;4905218;29;20047;-88
2022/01/07 06:29:21;;;;;;;21.77;10.73;;;;;;;5.23;80.78;97765.78;4908054;29;20051;-87
2022/01/07 06:31:47;;;;;;;20.15;9.35;;;;;;;5.26;80.60;97776.25;4888456;29;20072;-88
2022/01/07 06:34:13;;;;;;;22.10;10.18;;;;;;;5.33;80.23;97778.63;4890148;29;20505;-88
2022/01/07 06:36:38;;;;;;;21.63;9.48;;;;;;;5.18;80.11;97752.66;4904444;29;20131;-86
2022/01/07 06:39:04;;;;;;;13.48;7.95;;;;;;;5.45;78.62;97780.78;4902802;29;20087;-86
2022/01/07 06:41:33;;;;;;;17.83;8.55;;;;;;;5.47;77.48;97759.53;4888571;29;20039;-87
2022/01/07 06:43:59;;;;;;;45.83;20.25;;;;;;;5.75;77.21;97776.09;4911606;29;20047;-87
2022/01/07 06:46:24;;;;;;;26.38;10.40;;;;;;;5.75;76.43;97772.59;4903457;29;20044;-87
2022/01/07 06:48:50;;;;;;;24.88;10.45;;;;;;;5.92;76.13;97794.91;4888186;29;20036;-86
2022/01/07 06:51:15;;;;;;;30.05;13.68;;;;;;;6.12;75.62;97793.28;4903955;29;20092;-87
2022/01/07 06:53:41;;;;;;;29.05;13.27;;;;;;;6.26;74.59;97777.63;4902960;29;20065;-87
2022/01/07 06:56:06;;;;;;;35.33;15.57;;;;;;;6.49;73.45;97796.16;4887620;29;20071;-88
2022/01/07 06:58:32;;;;;;;47.15;20.70;;;;;;;6.65;72.07;97783.91;4903354;29;20068;-88
2022/01/07 07:00:58;;;;;;;41.20;19.08;;;;;;;6.79;71.91;97799.28;4896272;29;20042;-88
2022/01/07 07:03:24;;;;;;;42.47;14.52;;;;;;;6.93;70.36;97799.53;4921139;29;20056;-87
2022/01/07 07:05:49;;;;;;;27.63;11.70;;;;;;;6.98;69.94;97790.44;4892624;29;20520;-87
2022/01/07 07:08:15;;;;;;;19.23;8.52;;;;;;;7.35;68.88;97810.09;4886418;29;20050;-87
2022/01/07 07:10:41;;;;;;;18.95;8.73;;;;;;;6.98;67.92;97798.41;4891858;29;20488;-87
2022/01/07 07:13:07;;;;;;;16.73;7.80;;;;;;;6.98;67.81;97805.56;4922164;29;20102;-87
2022/01/07 07:15:33;;;;;;;13.73;7.00;;;;;;;7.25;67.02;97808.78;4897222;29;20042;-87
2022/01/07 07:18:05;;;;;;;18.02;7.72;;;;;;;7.39;66.62;97787.72;4921794;29;20067;-87
2022/01/07 07:20:31;;;;;;;16.80;6.32;;;;;;;7.58;64.63;97777.97;4910293;29;20051;-87
2022/01/07 07:22:56;;;;;;;7.43;5.22;;;;;;;7.37;64.72;97794.94;4886942;29;20035;-88
2022/01/07 07:25:23;;;;;;;18.08;7.35;;;;;;;7.81;63.38;97771.59;4911293;29;20123;-88
2022/01/07 07:27:50;;;;;;;20.67;8.00;;;;;;;8.82;60.33;97779.00;4906102;29;20064;-86
2022/01/07 07:30:15;;;;;;;18.77;6.80;;;;;;;9.78;55.80;97767.59;4905439;29;20039;-86
2022/01/07 07:32:41;;;;;;;20.73;7.72;;;;;;;10.76;53.13;97758.38;4917859;29;20059;-87
2022/01/07 07:37:44;;;;;;;10.05;6.03;;;;;;;10.75;51.01;97756.66;4915682;29;20081;-87
2022/01/07 07:40:10;;;;;;;12.70;5.85;;;;;;;10.78;51.60;97746.63;4905545;29;20040;-86
2022/01/07 07:42:37;;;;;;;8.10;4.85;;;;;;;11.96;48.88;97746.44;4912747;29;20505;-86
2022/01/07 07:45:03;;;;;;;18.13;8.20;;;;;;;12.08;47.93;97732.25;4906180;29;20492;-86
2022/01/07 07:47:29;;;;;;;13.57;7.20;;;;;;;11.54;49.28;97749.09;4895314;29;20044;-87
2022/01/07 07:49:54;;;;;;;11.32;7.03;;;;;;;10.93;48.95;97710.06;4886135;29;20568;-87
2022/01/07 07:52:20;;;;;;;17.40;8.02;;;;;;;10.52;50.11;97736.59;4901272;29;20082;-88
2022/01/07 07:54:45;;;;;;;11.07;7.03;;;;;;;9.54;52.58;97758.22;4897253;29;20050;-88
2022/01/07 07:57:11;;;;;;;23.13;8.80;;;;;;;8.59;54.88;97757.03;4921352;29;20099;-86
2022/01/07 07:59:36;;;;;;;14.57;7.22;;;;;;;8.41;56.27;97783.75;4905366;29;20050;-86
2022/01/07 08:02:02;;;;;;;16.65;7.65;;;;;;;8.57;56.52;97806.06;4889123;29;20081;-87
2022/01/07 08:04:29;;;;;;;13.90;6.72;;;;;;;8.66;56.52;97794.94;4904808;29;20044;-87
2022/01/07 08:07:17;;;;;;;15.63;7.82;;;;;;;8.53;57.35;97808.00;4903931;29;20513;-88
2022/01/07 08:09:44;;;;;;;11.98;7.20;;;;;;;8.22;58.36;97793.56;4894044;29;20346;-87
2022/01/07 08:12:20;;;;;;;11.98;5.38;;;;;;;7.93;59.00;97787.84;4899752;29;20052;-87
2022/01/07 08:17:30;;;;;;;10.00;4.60;;;;;;;7.81;59.81;97787.56;4909116;29;20075;-87
2022/01/07 08:19:55;;;;;;;8.10;4.88;;;;;;;7.69;60.08;97788.97;4920463;29;20401;-87
2022/01/07 08:22:21;;;;;;;11.73;4.90;;;;;;;7.70;59.93;97785.38;4897940;29;20048;-85
2022/01/07 08:24:47;;;;;;;8.00;4.93;;;;;;;7.64;60.25;97791.88;4897351;29;20032;-87
2022/01/07 08:27:12;;;;;;;11.32;5.90;;;;;;;7.86;59.77;97786.41;4905042;29;20047;-88
2022/01/07 08:29:40;;;;;;;10.80;5.60;;;;;;;8.03;59.42;97804.22;4917728;29;20040;-88
2022/01/07 08:34:53;;;;;;;7.30;4.35;;;;;;;7.50;60.14;97798.75;4914458;29;20099;-87
2022/01/07 08:37:27;;;;;;;7.85;3.97;;;;;;;7.42;61.07;97807.09;4902761;29;20088;-89
2022/01/07 08:39:54;;;;;;;6.95;3.72;;;;;;;7.48;60.44;97774.00;4886877;29;20103;-90
2022/01/07 08:42:24;;;;;;;11.10;4.40;;;;;;;7.60;60.22;97784.06;4905455;29;20044;-89
2022/01/07 08:44:52;;;;;;;13.07;5.63;;;;;;;7.86;60.57;97797.06;4889017;29;20035;-89
2022/01/07 08:47:20;;;;;;;10.10;5.18;;;;;;;7.93;59.70;97789.66;4905749;29;20111;-88
2022/01/07 08:49:47;;;;;;;6.97;4.13;;;;;;;7.72;59.85;97772.84;4890192;29;20040;-88
2022/01/07 08:52:13;;;;;;;7.05;3.83;;;;;;;7.77;60.06;97800.16;4904568;29;20035;-89
2022/01/07 08:54:39;;;;;;;11.98;5.30;;;;;;;7.71;60.02;97768.50;4922841;29;20047;-89
2022/01/07 08:57:05;;;;;;;15.70;5.82;;;;;;;7.68;60.39;97787.28;4926200;29;20032;-88
2022/01/07 08:59:31;;;;;;;9.35;5.22;;;;;;;7.19;61.03;97771.81;4911588;29;20031;-88
2022/01/07 09:01:56;;;;;;;12.13;5.57;;;;;;;7.05;61.53;97751.13;4912217;29;20039;-87
2022/01/07 09:04:23;;;;;;;8.88;5.00;;;;;;;7.33;60.96;97753.41;4912125;29;20508;-87
2022/01/07 09:06:48;;;;;;;12.13;7.53;;;;;;;7.53;60.68;97774.66;4908662;29;20036;-87
2022/01/07 09:09:14;;;;;;;14.93;5.20;;;;;;;7.14;61.46;97736.59;4922588;29;20104;-87
2022/01/07 09:11:40;;;;;;;11.70;5.13;;;;;;;7.32;60.14;97747.22;4907662;29;20032;-87
2022/01/07 09:14:08;;;;;;;20.17;5.85;;;;;;;7.40;61.36;97793.00;4924004;29;20032;-88
2022/01/07 09:16:34;;;;;;;8.55;5.32;;;;;;;7.33;60.87;97777.38;4917181;29;20496;-88
2022/01/07 09:19:00;;;;;;;9.48;5.55;;;;;;;6.82;62.01;97756.63;4911671;29;20111;-87
2022/01/07 09:21:26;;;;;;;11.18;6.00;;;;;;;7.19;62.13;97779.78;4911482;29;20035;-87
2022/01/07 09:23:52;;;;;;;10.85;6.25;;;;;;;7.30;61.75;97749.09;4899314;29;20047;-88
2022/01/07 09:26:17;;;;;;;12.98;6.82;;;;;;;7.48;60.68;97766.00;4906129;29;20039;-87
2022/01/07 09:28:43;;;;;;;9.48;5.80;;;;;;;7.62;58.35;97775.13;4909677;29;20032;-87
2022/01/07 09:31:09;;;;;;;9.55;4.25;;;;;;;7.56;56.34;97746.13;4914774;29;20039;-87
2022/01/07 09:33:38;;;;;;;15.82;9.02;;;;;;;7.67;57.29;97740.28;4908304;29;20063;-88
2022/01/07 09:36:04;;;;;;;14.52;7.47;;;;;;;7.45;57.58;97699.63;4909192;29;20040;-87
2022/01/07 09:38:30;;;;;;;20.75;9.73;;;;;;;7.76;57.90;97761.13;4907531;29;20044;-87
2022/01/07 09:40:55;;;;;;;16.92;9.02;;;;;;;7.51;58.85;97752.56;4912325;29;20132;-86
2022/01/07 09:43:22;;;;;;;17.08;8.55;;;;;;;7.49;59.41;97736.69;4896953;29;20179;-87
2022/01/07 09:45:48;;;;;;;19.70;9.95;;;;;;;7.72;58.79;97754.22;4915031;29;20043;-83
2022/01/07 09:48:14;;;;;;;15.85;8.23;;;;;;;7.94;56.45;97752.25;4901994;29;20126;-84
2022/01/07 09:50:40;;;;;;;25.60;11.63;;;;;;;8.00;55.95;97722.66;4901780;29;20119;-84
2022/01/07 09:53:07;;;;;;;17.92;8.98;;;;;;;8.33;53.56;97737.97;4901819;29;20078;-84
2022/01/07 09:55:33;;;;;;;32.45;15.32;;;;;;;8.56;54.06;97743.00;4895176;29;20051;-84
2022/01/07 09:58:00;;;;;;;19.70;9.70;;;;;;;8.58;55.07;97743.81;4912061;29;20503;-87
2022/01/07 10:00:38;;;;;;;17.58;7.55;;;;;;;8.46;56.17;97755.91;4913661;29;20193;-87
2022/01/07 10:03:07;;;;;;;20.98;7.90;;;;;;;8.11;56.92;97755.00;4891620;29;20044;-87
2022/01/07 10:05:40;;;;;;;14.73;6.13;;;;;;;7.97;57.06;97746.78;4907317;29;20040;-89
2022/01/07 10:08:26;;;;;;;22.73;13.95;;;;;;;8.14;57.04;97754.84;4915712;29;20038;-88
2022/01/07 10:11:16;;;;;;;56.95;31.52;;;;;;;8.43;56.09;97750.75;4909594;29;20481;-88
2022/01/07 10:14:02;;;;;;;11.73;6.47;;;;;;;8.27;56.00;97736.44;4927865;29;20042;-88
2022/01/07 10:16:28;;;;;;;10.13;6.00;;;;;;;8.11;55.22;97712.38;4923966;29;20028;-89
2022/01/07 10:18:54;;;;;;;12.07;6.05;;;;;;;8.34;53.75;97734.34;4912932;29;20054;-89
2022/01/07 10:21:21;;;;;;;14.07;5.50;;;;;;;8.17;52.32;97680.09;4913441;29;20563;-88
2022/01/07 10:23:47;;;;;;;9.35;4.50;;;;;;;8.25;47.95;97665.50;4926619;29;20067;-86
2022/01/07 10:26:18;;;;;;;9.75;4.53;;;;;;;8.42;48.46;97701.06;4913398;29;20039;-87
2022/01/07 10:28:45;;;;;;;14.80;6.53;;;;;;;8.59;50.05;97708.19;4908069;29;20520;-88
2022/01/07 10:31:21;;;;;;;16.25;10.75;;;;;;;8.78;48.89;97692.97;4924307;29;20027;-89
2022/01/07 10:33:49;;;;;;;19.40;10.32;;;;;;;8.80;47.07;97680.41;4906919;29;20059;-87
2022/01/07 10:36:20;;;;;;;6.68;3.55;;;;;;;8.86;44.99;97658.72;4907885;29;20423;-87
2022/01/07 10:38:49;;;;;;;7.23;3.70;;;;;;;8.87;45.01;97659.59;4923709;29;20203;-87
2022/01/07 10:41:15;;;;;;;6.63;3.28;;;;;;;9.11;43.12;97675.16;4906440;29;20036;-88
2022/01/07 10:43:41;;;;;;;7.20;3.10;;;;;;;9.10;43.09;97652.09;4921689;29;20069;-87
2022/01/07 10:46:19;;;;;;;8.15;4.10;;;;;;;9.36;42.97;97665.81;4922144;29;20036;-87
2022/01/07 10:48:55;;;;;;;15.85;5.40;;;;;;;9.22;44.63;97671.91;4938130;29;20038;-88
2022/01/07 10:51:24;;;;;;;8.48;3.60;;;;;;;8.84;44.21;97635.75;4904748;29;20032;-87
2022/01/07 10:53:55;;;;;;;10.02;5.60;;;;;;;8.92;44.65;97639.72;4903960;29;20138;-89
2022/01/07 10:56:23;;;;;;;4.07;2.42;;;;;;;8.97;42.87;97655.50;4888344;29;20127;-87
2022/01/07 10:58:48;;;;;;;4.80;2.50;;;;;;;8.94;43.48;97645.88;4903465;29;20096;-88
2022/01/07 11:01:20;;;;;;;7.18;3.10;;;;;;;9.02;42.92;97646.31;4920156;29;20039;-88
2022/01/07 11:03:53;;;;;;;5.40;3.47;;;;;;;9.08;41.99;97635.28;4928403;29;20492;-88
2022/01/07 11:06:20;;;;;;;5.60;2.80;;;;;;;9.20;41.84;97636.44;4912961;29;20039;-88
2022/01/07 11:08:50;;;;;;;14.88;5.88;;;;;;;9.17;42.10;97616.09;4909397;29;20459;-88
2022/01/07 11:11:15;;;;;;;11.27;6.38;;;;;;;9.19;42.16;97600.03;4925624;29;20043;-88
2022/01/07 11:13:42;;;;;;;7.82;3.47;;;;;;;9.22;41.67;97606.06;4926242;29;20048;-89
2022/01/07 11:16:13;;;;;;;50.95;20.48;;;;;;;9.44;41.53;97620.88;4928401;29;20098;-88
2022/01/07 11:19:10;;;;;;;11.55;5.90;;;;;;;9.52;41.27;97615.94;4921583;29;20048;-88
2022/01/07 11:21:51;;;;;;;4.07;2.30;;;;;;;9.42;40.53;97585.38;4912695;29;20537;-88
2022/01/07 11:24:38;;;;;;;3.10;2.20;;;;;;;9.23;40.21;97567.72;4909321;29;20043;-89
2022/01/07 11:27:14;;;;;;;2.70;1.75;;;;;;;9.18;40.62;97585.81;4937260;29;20044;-88
2022/01/07 11:29:59;;;;;;;120.00;42.50;;;;;;;9.43;40.22;97611.13;4935173;29;20043;-88
2022/01/07 11:32:34;;;;;;;25.70;8.50;;;;;;;9.39;40.72;97610.44;4938873;29;20051;-87
2022/01/07 11:35:18;;;;;;;6.90;3.30;;;;;;;9.49;40.58;97616.13;4943518;29;20492;-88
2022/01/07 11:37:48;;;;;;;15.55;6.85;;;;;;;9.37;41.20;97620.34;4943304;29;20044;-88
2022/01/07 11:40:38;;;;;;;5.72;2.92;;;;;;;9.39;40.84;97609.56;4908754;29;20043;-90
2022/01/07 11:43:13;;;;;;;5.18;3.58;;;;;;;9.34;40.49;97606.31;4940516;29;20040;-87
2022/01/07 11:45:41;;;;;;;3.70;2.28;;;;;;;8.91;40.71;97591.81;4939134;29;20070;-89
2022/01/07 11:48:13;;;;;;;4.75;1.90;;;;;;;9.12;40.79;97601.31;4908816;29;20040;-87